KSGU/SGU METAR and TAF weather

Enter ICAO airport designator
Station Type Date Time Source
KSGU METAR 2018/12/13 19:56 UTC NOAA

KSGU 131956Z AUTO 34004KT 10SM CLR 08/M11 A3042 RMK AO2 SLP308 T00831106


Station Type Date Time Source
KSGU Decoded METAR 2018/12/13 19:56 UTC NOAA

St George, St George Municipal Airport, UT, United States (KSGU) 37-05N 113-36W
Dec 13, 2018 - 02:56 PM EST / 2018.12.13 1956 UTC
Wind: from the NNW (340 degrees) at 5 MPH (4 KT):0
Visibility: 10 mile(s):0
Sky conditions: clear
Temperature: 46.9 F (8.3 C)
Dew Point: 12.9 F (-10.6 C)
Relative Humidity: 24%
Pressure (altimeter): 30.42 in. Hg (1030 hPa)
ob: KSGU 131956Z AUTO 34004KT 10SM CLR 08/M11 A3042 RMK AO2 SLP308 T00831106
cycle: 20

Station Type Date Time Source
KSGU TAF 2018/12/13 18:30 UTC NOAA

TAF KSGU 131728Z 1318/1418 VRB05KT P6SM FEW200


Example: see airport list